Time;durP1;ratioP1;P1;durP2;ratioP2;P2;SDS_P1;SDS_P2;PMS_P1;PMS_P2;Temp;Humidity;BMP_temperature;BMP_pressure;BME280_temperature;BME280_humidity;BME280_pressure;Samples;Min_cycle;Max_cycle;Signal;HPM_P1;HPM_P2
2023/04/22 00:09:41;;;;;;;10.95;4.82;;;8.90;43.00;;;;;;20707315;28;20567;-43
2023/04/22 00:19:42;;;;;;;10.15;5.18;;;8.80;42.30;;;;;;20698478;28;20588;-43
2023/04/22 00:29:43;;;;;;;14.57;4.95;;;8.70;50.60;;;;;;20703115;28;20046;-43
2023/04/22 00:39:44;;;;;;;8.25;3.63;;;8.60;51.10;;;;;;20691195;28;20042;-43
2023/04/22 00:49:47;;;;;;;10.77;4.40;;;8.60;64.00;;;;;;20684799;28;20044;-43
2023/04/22 00:59:49;;;;;;;8.23;4.30;;;8.50;56.40;;;;;;20693349;28;20049;-43
2023/04/22 01:09:50;;;;;;;9.02;3.95;;;8.40;59.60;;;;;;20673783;28;20065;-43
2023/04/22 01:19:51;;;;;;;7.88;3.90;;;8.30;63.20;;;;;;20681102;28;20041;-43
2023/04/22 01:29:52;;;;;;;8.40;4.15;;;8.10;54.90;;;;;;20694061;28;20041;-43
2023/04/22 01:39:54;;;;;;;10.77;5.32;;;7.90;44.90;;;;;;20687282;28;20670;-43
2023/04/22 01:49:55;;;;;;;13.30;7.15;;;7.80;42.10;;;;;;20686983;28;20052;-43
2023/04/22 01:59:57;;;;;;;14.15;6.03;;;7.60;40.90;;;;;;20685536;28;20151;-43
2023/04/22 02:10:00;;;;;;;11.35;6.93;;;7.50;41.30;;;;;;20693238;28;20033;-43
2023/04/22 02:20:02;;;;;;;13.57;6.65;;;7.50;58.10;;;;;;20684901;28;20478;-43
2023/04/22 02:30:06;;;;;;;13.32;6.35;;;7.50;57.80;;;;;;20696034;28;20274;-43
2023/04/22 02:40:07;;;;;;;14.68;7.05;;;7.40;50.70;;;;;;20676539;28;20041;-43
2023/04/22 02:50:09;;;;;;;13.50;6.95;;;7.30;53.80;;;;;;20679815;28;20033;-43
2023/04/22 03:00:10;;;;;;;18.38;8.25;;;7.20;46.30;;;;;;20688834;28;20054;-43
2023/04/22 03:10:11;;;;;;;16.10;6.78;;;7.10;44.50;;;;;;20688976;28;20171;-43
2023/04/22 03:20:12;;;;;;;16.75;8.25;;;7.10;47.80;;;;;;20685561;28;20045;-43
2023/04/22 03:30:14;;;;;;;14.98;7.13;;;7.10;51.10;;;;;;20696748;28;20033;-43
2023/04/22 03:40:15;;;;;;;15.38;6.72;;;7.10;54.80;;;;;;20686248;28;20515;-43
2023/04/22 03:50:16;;;;;;;14.82;6.70;;;7.10;72.70;;;;;;20695564;28;20048;-43
2023/04/22 04:00:17;;;;;;;15.15;6.18;;;7.20;91.60;;;;;;20699802;28;20151;-43
2023/04/22 04:10:18;;;;;;;13.88;7.13;;;7.30;95.60;;;;;;20682072;28;20057;-44
2023/04/22 04:20:19;;;;;;;15.85;7.75;;;7.30;99.90;;;;;;20672031;28;20041;-43
2023/04/22 04:30:20;;;;;;;15.40;6.50;;;7.40;99.90;;;;;;20674139;28;20556;-43
2023/04/22 04:40:22;;;;;;;15.02;7.10;;;7.50;99.90;;;;;;20672775;28;20390;-43
2023/04/22 04:50:23;;;;;;;17.83;7.93;;;7.60;99.90;;;;;;20682162;28;20045;-43
2023/04/22 05:00:24;;;;;;;14.27;6.78;;;7.60;99.90;;;;;;20670740;28;20042;-43
2023/04/22 05:10:25;;;;;;;10.07;6.32;;;7.70;99.90;;;;;;20704763;28;20303;-43
2023/04/22 05:20:26;;;;;;;12.90;7.18;;;7.80;99.90;;;;;;20711539;28;20038;-43
2023/04/22 05:30:27;;;;;;;16.75;6.85;;;7.90;99.90;;;;;;20693844;28;20045;-43
2023/04/22 05:40:28;;;;;;;10.90;5.47;;;7.90;99.90;;;;;;20696548;28;20037;-43
2023/04/22 05:50:29;;;;;;;11.32;5.57;;;8.00;99.90;;;;;;20682122;28;20030;-43
2023/04/22 06:00:31;;;;;;;11.15;5.40;;;8.20;99.90;;;;;;20681939;28;20366;-43
2023/04/22 06:10:32;;;;;;;11.05;6.15;;;8.30;99.90;;;;;;20682986;28;20041;-44
2023/04/22 06:20:34;;;;;;;12.20;5.45;;;8.40;99.90;;;;;;20667380;28;22438;-43
2023/04/22 06:30:35;;;;;;;11.93;6.32;;;8.50;99.90;;;;;;20773229;28;20033;-44
2023/04/22 06:40:36;;;;;;;12.38;6.53;;;8.70;99.90;;;;;;20776454;28;20045;-44
2023/04/22 06:50:38;;;;;;;12.70;6.22;;;8.80;99.90;;;;;;20783744;28;20582;-44
2023/04/22 07:00:39;;;;;;;12.23;6.53;;;9.00;99.90;;;;;;20778191;28;20045;-43
2023/04/22 07:10:40;;;;;;;11.90;7.22;;;9.30;99.90;;;;;;20782005;28;20064;-43
2023/04/22 07:20:41;;;;;;;11.68;5.78;;;9.50;99.90;;;;;;20791246;28;20045;-43
2023/04/22 07:30:42;;;;;;;8.75;4.80;;;9.70;99.90;;;;;;20815550;28;20040;-43
2023/04/22 07:40:43;;;;;;;11.90;6.13;;;10.00;99.90;;;;;;20791434;28;20037;-43
2023/04/22 07:50:44;;;;;;;15.93;6.85;;;10.50;99.90;;;;;;20780886;28;20041;-44
2023/04/22 08:00:45;;;;;;;6.18;4.03;;;10.90;76.70;;;;;;20778968;28;20041;-43
2023/04/22 08:10:46;;;;;;;10.85;5.88;;;11.30;22.60;;;;;;20777152;28;20409;-44
2023/04/22 08:20:47;;;;;;;10.40;4.38;;;11.60;5.10;;;;;;20774215;28;20163;-43
2023/04/22 08:30:48;;;;;;;7.75;4.18;;;12.10;1.00;;;;;;20769330;28;20040;-42
2023/04/22 08:40:50;;;;;;;8.43;3.67;;;12.50;1.00;;;;;;20769666;28;20155;-41
2023/04/22 08:50:53;;;;;;;5.40;2.47;;;12.90;1.00;;;;;;20754418;28;20033;-44
2023/04/22 09:00:54;;;;;;;6.95;3.42;;;13.50;1.00;;;;;;20762887;28;25008;-44
2023/04/22 09:10:57;;;;;;;6.80;3.00;;;13.80;1.00;;;;;;20728866;28;20047;-44
2023/04/22 09:20:58;;;;;;;6.90;3.95;;;14.20;1.00;;;;;;20767523;28;20037;-44
2023/04/22 09:31:01;;;;;;;5.53;3.05;;;14.80;1.00;;;;;;20766013;28;20168;-43
2023/04/22 09:41:08;;;;;;;5.78;2.90;;;15.10;1.00;;;;;;20771827;28;20496;-42
2023/04/22 09:51:16;;;;;;;6.32;2.80;;;15.60;1.00;;;;;;20786537;28;20492;-42
2023/04/22 10:01:18;;;;;;;5.75;2.88;;;16.00;1.00;;;;;;20784474;28;20049;-41
2023/04/22 10:11:19;;;;;;;6.55;2.97;;;16.40;1.00;;;;;;20776209;28;20037;-42
2023/04/22 10:21:22;;;;;;;6.60;3.90;;;16.50;1.00;;;;;;20772466;28;20044;-42
2023/04/22 10:31:24;;;;;;;6.60;3.15;;;17.00;1.00;;;;;;20775609;28;20025;-42
2023/04/22 10:41:29;;;;;;;5.32;3.00;;;17.20;1.00;;;;;;20784786;28;20041;-42
2023/04/22 10:51:50;;;;;;;5.20;2.78;;;17.50;1.00;;;;;;20792605;28;20030;-42
2023/04/22 11:01:51;;;;;;;6.05;2.83;;;17.40;1.00;;;;;;20781914;28;20155;-42
2023/04/22 11:11:53;;;;;;;6.70;3.72;;;16.60;1.00;;;;;;20782359;28;20048;-42
2023/04/22 11:21:54;;;;;;;7.32;3.50;;;16.10;1.00;;;;;;20793480;28;20050;-42
2023/04/22 11:31:56;;;;;;;8.88;4.22;;;15.90;1.00;;;;;;20819439;28;20040;-42
2023/04/22 11:41:57;;;;;;;8.20;4.32;;;15.60;1.00;;;;;;20803014;28;20048;-42
2023/04/22 11:51:58;;;;;;;7.75;3.80;;;15.30;1.00;;;;;;20785956;28;20037;-42
2023/04/22 12:02:03;;;;;;;10.15;4.40;;;14.70;1.00;;;;;;20765234;28;20623;-42
2023/04/22 12:12:04;;;;;;;8.88;4.38;;;13.80;1.00;;;;;;20766477;28;20042;-42
2023/04/22 12:22:05;;;;;;;8.10;5.30;;;13.30;11.50;;;;;;20800974;28;20034;-41
2023/04/22 12:32:06;;;;;;;11.60;5.03;;;13.00;34.70;;;;;;20795418;28;20185;-41
2023/04/22 12:42:07;;;;;;;11.63;5.45;;;12.70;82.70;;;;;;20778684;28;20448;-42
2023/04/22 12:52:08;;;;;;;9.32;4.88;;;12.50;99.90;;;;;;20767398;28;20045;-41
2023/04/22 13:02:09;;;;;;;13.10;6.93;;;12.50;99.90;;;;;;20763136;28;20043;-42
2023/04/22 13:12:11;;;;;;;14.93;6.97;;;12.30;99.90;;;;;;20776064;28;20034;-41
2023/04/22 13:22:12;;;;;;;12.65;6.88;;;12.10;99.90;;;;;;20767336;28;20049;-41
2023/04/22 13:32:13;;;;;;;15.15;8.43;;;12.00;99.90;;;;;;20775962;28;20037;-42
2023/04/22 13:42:14;;;;;;;17.42;9.63;;;11.90;99.90;;;;;;20803213;28;20048;-42
2023/04/22 13:52:15;;;;;;;14.82;7.65;;;11.80;99.90;;;;;;20806631;28;20033;-41
2023/04/22 14:02:16;;;;;;;18.60;9.23;;;11.70;99.90;;;;;;20801537;28;20041;-42
2023/04/22 14:12:17;;;;;;;18.10;9.05;;;11.50;99.90;;;;;;20799225;28;20041;-42
2023/04/22 14:22:19;;;;;;;13.50;8.48;;;11.60;99.90;;;;;;20796155;28;20046;-42
2023/04/22 14:32:20;;;;;;;16.73;9.50;;;11.60;99.90;;;;;;20774607;28;20037;-41
2023/04/22 14:42:21;;;;;;;16.55;8.73;;;11.60;99.90;;;;;;20800769;28;20041;-42
2023/04/22 14:52:23;;;;;;;16.73;8.73;;;11.50;99.90;;;;;;20772627;28;20029;-42
2023/04/22 15:02:27;;;;;;;15.43;7.97;;;11.50;99.90;;;;;;20796814;28;20076;-42
2023/04/22 15:12:28;;;;;;;16.90;8.70;;;11.40;99.90;;;;;;20781619;28;20042;-42
2023/04/22 15:22:30;;;;;;;19.98;9.65;;;11.20;99.90;;;;;;20781569;28;20040;-42
2023/04/22 15:32:31;;;;;;;17.20;8.23;;;11.10;99.90;;;;;;20784762;28;20072;-42
2023/04/22 15:42:32;;;;;;;17.67;7.05;;;11.00;99.90;;;;;;20789647;28;20052;-42
2023/04/22 15:52:34;;;;;;;14.38;7.05;;;10.90;99.90;;;;;;20789344;28;20037;-41
2023/04/22 16:02:36;;;;;;;14.65;7.68;;;10.70;99.90;;;;;;20787480;28;20386;-41
2023/04/22 16:12:37;;;;;;;15.77;6.20;;;10.60;99.90;;;;;;20784698;28;20037;-42
2023/04/22 16:22:38;;;;;;;16.33;9.07;;;10.50;99.90;;;;;;20789087;28;20054;-42
2023/04/22 16:32:39;;;;;;;16.10;8.80;;;10.40;99.90;;;;;;20788444;28;20349;-42
2023/04/22 16:42:40;;;;;;;17.90;8.77;;;10.40;99.90;;;;;;20797627;28;20537;-42
2023/04/22 16:52:41;;;;;;;17.10;8.82;;;10.40;99.90;;;;;;20765338;28;20067;-42
2023/04/22 17:02:42;;;;;;;19.23;9.13;;;10.40;99.90;;;;;;20793250;28;20512;-41
2023/04/22 17:12:44;;;;;;;18.95;8.10;;;10.40;99.90;;;;;;20783414;28;20428;-41
2023/04/22 17:22:45;;;;;;;16.83;8.68;;;10.40;99.90;;;;;;20777333;28;20045;-42
2023/04/22 17:32:46;;;;;;;19.83;9.27;;;10.60;99.90;;;;;;20760408;28;20369;-42
2023/04/22 17:42:47;;;;;;;16.27;8.20;;;10.60;99.90;;;;;;20767385;28;20064;-42
2023/04/22 17:52:48;;;;;;;16.17;7.90;;;10.60;99.90;;;;;;20805070;28;20056;-42
2023/04/22 18:02:49;;;;;;;23.90;9.60;;;10.50;99.90;;;;;;20756710;28;20054;-42
2023/04/22 18:12:51;;;;;;;16.80;8.63;;;10.50;99.90;;;;;;20758039;28;20068;-42
2023/04/22 18:22:52;;;;;;;20.10;8.73;;;10.40;99.90;;;;;;20784198;28;20547;-42
2023/04/22 18:32:53;;;;;;;20.05;7.88;;;10.20;99.90;;;;;;20804867;28;20053;-42
2023/04/22 18:42:54;;;;;;;14.63;7.60;;;10.00;99.90;;;;;;20784782;28;20048;-42
2023/04/22 18:52:55;;;;;;;20.35;9.15;;;9.90;99.90;;;;;;20796680;28;20042;-44
2023/04/22 19:02:56;;;;;;;14.90;7.55;;;9.80;99.90;;;;;;20779845;28;20045;-44
2023/04/22 19:12:58;;;;;;;18.00;8.90;;;9.70;99.90;;;;;;20752180;28;20201;-43
2023/04/22 19:22:59;;;;;;;18.85;8.07;;;9.50;99.90;;;;;;20794228;28;20056;-44
2023/04/22 19:33:00;;;;;;;20.90;8.60;;;9.40;99.90;;;;;;20802668;28;20037;-41
2023/04/22 19:43:01;;;;;;;21.38;10.15;;;9.30;99.90;;;;;;20782941;28;20041;-41
2023/04/22 19:53:04;;;;;;;20.83;10.15;;;9.20;99.90;;;;;;20790002;28;20041;-42
2023/04/22 20:03:05;;;;;;;32.42;12.20;;;9.10;99.90;;;;;;20776224;28;20045;-42
2023/04/22 20:13:07;;;;;;;29.80;11.40;;;9.10;99.90;;;;;;20772150;28;20033;-42
2023/04/22 20:23:09;;;;;;;30.70;12.60;;;9.00;99.90;;;;;;20769794;28;20037;-42
2023/04/22 20:33:13;;;;;;;31.40;13.50;;;9.00;99.90;;;;;;20773135;28;20305;-42
2023/04/22 20:43:14;;;;;;;26.23;12.63;;;9.00;99.90;;;;;;20763311;28;20038;-42
2023/04/22 20:53:16;;;;;;;27.75;14.10;;;9.00;99.90;;;;;;20801594;28;20033;-42
2023/04/22 21:03:17;;;;;;;38.60;18.95;;;8.90;99.90;;;;;;20801756;28;20037;-42
2023/04/22 21:13:19;;;;;;;39.83;18.92;;;8.80;99.90;;;;;;20780675;28;20037;-42
2023/04/22 21:23:22;;;;;;;46.90;20.58;;;8.70;99.90;;;;;;20793832;28;21563;-42
2023/04/22 21:33:24;;;;;;;42.70;17.73;;;8.70;99.90;;;;;;20782456;28;20025;-42
2023/04/22 21:43:25;;;;;;;41.65;18.05;;;8.80;99.90;;;;;;20778688;28;20056;-42
2023/04/22 21:53:26;;;;;;;41.20;19.50;;;8.70;99.90;;;;;;20807423;28;20504;-42
2023/04/22 22:03:27;;;;;;;50.88;20.80;;;8.70;99.90;;;;;;20803150;28;20038;-42
2023/04/22 22:13:29;;;;;;;41.10;18.10;;;8.60;99.90;;;;;;20817741;28;20060;-42
2023/04/22 22:23:30;;;;;;;41.10;18.63;;;8.70;99.90;;;;;;20815047;28;20045;-42
2023/04/22 22:33:31;;;;;;;33.28;16.92;;;8.70;99.90;;;;;;20801105;28;20037;-42
2023/04/22 22:43:32;;;;;;;45.60;17.52;;;8.70;99.90;;;;;;20778332;28;20044;-42
2023/04/22 22:53:35;;;;;;;33.63;17.52;;;8.80;99.90;;;;;;20771737;28;20038;-43
2023/04/22 23:03:36;;;;;;;38.08;19.38;;;8.70;99.90;;;;;;20770549;28;20492;-42
2023/04/22 23:13:37;;;;;;;36.88;18.67;;;8.60;99.90;;;;;;20781859;28;20507;-42
2023/04/22 23:23:39;;;;;;;41.25;20.55;;;8.60;99.90;;;;;;20776514;28;20067;-42
2023/04/22 23:33:41;;;;;;;52.78;22.17;;;8.60;99.90;;;;;;20779151;28;20037;-42
2023/04/22 23:43:42;;;;;;;49.55;21.75;;;8.60;99.90;;;;;;20786798;28;20444;-42
2023/04/22 23:53:45;;;;;;;39.72;20.60;;;8.70;99.90;;;;;;20784939;28;20045;-42
